Terminal Aerodrome Forecast
Issued by NWS

Home | Current Version | Previous Version | Graphics & Text | Print | Product List | Glossary On
Versions: 1 2 3 4 5 6 7 8 9 10 11 12 13 14 15 16 17 18 19 20 21 22 23 24 25 26 27 28 29 30 31 32 33 34 35 36 37 38 39 40 41 42 43 44 45 46 47 48
747
FTUS43 KGRB 120238 AAA
TAFATW
TAF AMD
KATW 120238Z 1203/1224 33017G27KT P6SM -SHSN BKN020 OVC035
     FM120800 32013G21KT P6SM SCT035
     FM121300 31012G19KT P6SM SCT070
     FM122100 31013G21KT P6SM SCT045=

USA.gov is the U.S. government's official web portal to all federal, state and local government web resources and services.